sensor_id;sensor_type;location;lat;lon;timestamp;P1;durP1;ratioP1;P2;durP2;ratioP2
23804;SDS011;12083;52.098;7.582;2022-07-29T00:00:37;3.60;;;0.97;;
23804;SDS011;12083;52.098;7.582;2022-07-29T00:03:03;4.43;;;1.33;;
23804;SDS011;12083;52.098;7.582;2022-07-29T00:05:29;12.00;;;1.40;;
23804;SDS011;12083;52.098;7.582;2022-07-29T00:07:54;9.17;;;1.23;;
23804;SDS011;12083;52.098;7.582;2022-07-29T00:10:20;4.00;;;1.40;;
23804;SDS011;12083;52.098;7.582;2022-07-29T00:12:46;1.30;;;1.03;;
23804;SDS011;12083;52.098;7.582;2022-07-29T00:15:12;7.23;;;1.10;;
23804;SDS011;12083;52.098;7.582;2022-07-29T00:17:38;9.80;;;1.90;;
23804;SDS011;12083;52.098;7.582;2022-07-29T00:20:04;7.63;;;0.80;;
23804;SDS011;12083;52.098;7.582;2022-07-29T00:22:30;4.53;;;1.40;;
23804;SDS011;12083;52.098;7.582;2022-07-29T00:24:56;3.40;;;1.33;;
23804;SDS011;12083;52.098;7.582;2022-07-29T00:27:21;3.63;;;1.47;;
23804;SDS011;12083;52.098;7.582;2022-07-29T00:29:47;2.13;;;1.10;;
23804;SDS011;12083;52.098;7.582;2022-07-29T00:32:13;2.23;;;1.30;;
23804;SDS011;12083;52.098;7.582;2022-07-29T00:34:38;3.27;;;1.40;;
23804;SDS011;12083;52.098;7.582;2022-07-29T00:37:23;1.53;;;1.00;;
23804;SDS011;12083;52.098;7.582;2022-07-29T00:39:49;4.90;;;1.70;;
23804;SDS011;12083;52.098;7.582;2022-07-29T00:42:14;2.10;;;1.00;;
23804;SDS011;12083;52.098;7.582;2022-07-29T00:44:41;2.03;;;1.00;;
23804;SDS011;12083;52.098;7.582;2022-07-29T00:47:08;3.83;;;1.30;;
23804;SDS011;12083;52.098;7.582;2022-07-29T00:49:34;4.20;;;1.70;;
23804;SDS011;12083;52.098;7.582;2022-07-29T00:52:01;6.63;;;1.30;;
23804;SDS011;12083;52.098;7.582;2022-07-29T00:54:28;3.43;;;0.90;;
23804;SDS011;12083;52.098;7.582;2022-07-29T00:56:55;9.00;;;2.40;;
23804;SDS011;12083;52.098;7.582;2022-07-29T00:59:23;3.30;;;1.23;;
23804;SDS011;12083;52.098;7.582;2022-07-29T01:01:51;8.57;;;1.20;;
23804;SDS011;12083;52.098;7.582;2022-07-29T01:04:16;8.93;;;1.30;;
23804;SDS011;12083;52.098;7.582;2022-07-29T01:06:42;5.70;;;1.03;;
23804;SDS011;12083;52.098;7.582;2022-07-29T01:09:07;4.53;;;1.23;;
23804;SDS011;12083;52.098;7.582;2022-07-29T01:11:34;5.17;;;1.10;;
23804;SDS011;12083;52.098;7.582;2022-07-29T01:14:04;6.70;;;1.37;;
23804;SDS011;12083;52.098;7.582;2022-07-29T01:16:33;3.60;;;1.10;;
23804;SDS011;12083;52.098;7.582;2022-07-29T01:19:11;2.70;;;1.20;;
23804;SDS011;12083;52.098;7.582;2022-07-29T01:21:54;2.60;;;1.27;;
23804;SDS011;12083;52.098;7.582;2022-07-29T01:29:53;6.00;;;1.37;;
23804;SDS011;12083;52.098;7.582;2022-07-29T01:32:24;2.70;;;1.43;;
23804;SDS011;12083;52.098;7.582;2022-07-29T01:34:54;4.33;;;1.30;;
23804;SDS011;12083;52.098;7.582;2022-07-29T01:37:26;1.77;;;1.07;;
23804;SDS011;12083;52.098;7.582;2022-07-29T01:40:22;3.80;;;1.30;;
23804;SDS011;12083;52.098;7.582;2022-07-29T01:42:51;1.80;;;1.10;;
23804;SDS011;12083;52.098;7.582;2022-07-29T01:45:23;6.40;;;1.43;;
23804;SDS011;12083;52.098;7.582;2022-07-29T01:50:36;11.50;;;1.60;;
23804;SDS011;12083;52.098;7.582;2022-07-29T01:53:08;3.40;;;1.63;;
23804;SDS011;12083;52.098;7.582;2022-07-29T01:55:38;2.63;;;1.70;;
23804;SDS011;12083;52.098;7.582;2022-07-29T01:58:07;2.67;;;1.40;;
23804;SDS011;12083;52.098;7.582;2022-07-29T02:00:34;1.63;;;1.17;;
23804;SDS011;12083;52.098;7.582;2022-07-29T02:03:02;5.67;;;1.40;;
23804;SDS011;12083;52.098;7.582;2022-07-29T02:05:32;5.67;;;3.63;;
23804;SDS011;12083;52.098;7.582;2022-07-29T02:08:00;11.40;;;1.80;;
23804;SDS011;12083;52.098;7.582;2022-07-29T02:10:28;2.00;;;1.10;;
23804;SDS011;12083;52.098;7.582;2022-07-29T02:12:56;3.23;;;1.40;;
23804;SDS011;12083;52.098;7.582;2022-07-29T02:15:27;5.13;;;1.20;;
23804;SDS011;12083;52.098;7.582;2022-07-29T02:18:37;6.03;;;1.40;;
23804;SDS011;12083;52.098;7.582;2022-07-29T02:20:45;2.60;;;1.20;;
23804;SDS011;12083;52.098;7.582;2022-07-29T02:23:14;6.07;;;1.90;;
23804;SDS011;12083;52.098;7.582;2022-07-29T02:25:44;3.00;;;1.10;;
23804;SDS011;12083;52.098;7.582;2022-07-29T02:28:11;1.97;;;0.77;;
23804;SDS011;12083;52.098;7.582;2022-07-29T02:30:39;3.00;;;1.00;;
23804;SDS011;12083;52.098;7.582;2022-07-29T02:33:07;3.80;;;1.10;;
23804;SDS011;12083;52.098;7.582;2022-07-29T02:35:35;9.50;;;1.97;;
23804;SDS011;12083;52.098;7.582;2022-07-29T02:38:01;6.57;;;1.50;;
23804;SDS011;12083;52.098;7.582;2022-07-29T02:40:46;3.70;;;1.40;;
23804;SDS011;12083;52.098;7.582;2022-07-29T02:43:13;1.13;;;0.90;;
23804;SDS011;12083;52.098;7.582;2022-07-29T02:45:40;1.00;;;0.90;;
23804;SDS011;12083;52.098;7.582;2022-07-29T02:48:10;2.67;;;1.30;;
23804;SDS011;12083;52.098;7.582;2022-07-29T02:50:44;3.77;;;1.40;;
23804;SDS011;12083;52.098;7.582;2022-07-29T02:53:16;5.87;;;1.30;;
23804;SDS011;12083;52.098;7.582;2022-07-29T02:55:45;2.20;;;1.13;;
23804;SDS011;12083;52.098;7.582;2022-07-29T03:00:44;2.00;;;1.07;;
23804;SDS011;12083;52.098;7.582;2022-07-29T03:03:15;2.83;;;1.07;;
23804;SDS011;12083;52.098;7.582;2022-07-29T03:05:42;2.70;;;1.07;;
23804;SDS011;12083;52.098;7.582;2022-07-29T03:08:08;6.77;;;1.00;;
23804;SDS011;12083;52.098;7.582;2022-07-29T03:10:36;2.10;;;1.20;;
23804;SDS011;12083;52.098;7.582;2022-07-29T03:13:05;1.50;;;1.20;;
23804;SDS011;12083;52.098;7.582;2022-07-29T03:15:33;9.57;;;1.53;;
23804;SDS011;12083;52.098;7.582;2022-07-29T03:18:00;10.50;;;1.77;;
23804;SDS011;12083;52.098;7.582;2022-07-29T03:20:26;5.10;;;1.33;;
23804;SDS011;12083;52.098;7.582;2022-07-29T03:22:52;3.60;;;1.27;;
23804;SDS011;12083;52.098;7.582;2022-07-29T03:25:18;3.23;;;1.40;;
23804;SDS011;12083;52.098;7.582;2022-07-29T03:27:45;1.43;;;0.93;;
23804;SDS011;12083;52.098;7.582;2022-07-29T03:30:12;8.00;;;1.30;;
23804;SDS011;12083;52.098;7.582;2022-07-29T03:32:38;3.43;;;1.37;;
23804;SDS011;12083;52.098;7.582;2022-07-29T03:35:05;3.93;;;1.20;;
23804;SDS011;12083;52.098;7.582;2022-07-29T03:37:32;3.73;;;1.30;;
23804;SDS011;12083;52.098;7.582;2022-07-29T03:39:58;5.40;;;2.07;;
23804;SDS011;12083;52.098;7.582;2022-07-29T03:42:28;2.70;;;1.10;;
23804;SDS011;12083;52.098;7.582;2022-07-29T03:44:57;2.20;;;1.50;;
23804;SDS011;12083;52.098;7.582;2022-07-29T03:47:24;14.00;;;2.13;;
23804;SDS011;12083;52.098;7.582;2022-07-29T03:49:53;13.67;;;1.60;;
23804;SDS011;12083;52.098;7.582;2022-07-29T03:52:25;3.10;;;1.33;;
23804;SDS011;12083;52.098;7.582;2022-07-29T03:54:50;6.83;;;1.83;;
23804;SDS011;12083;52.098;7.582;2022-07-29T03:57:17;3.63;;;1.43;;
23804;SDS011;12083;52.098;7.582;2022-07-29T03:59:45;4.30;;;1.27;;
23804;SDS011;12083;52.098;7.582;2022-07-29T04:02:12;3.63;;;1.23;;
23804;SDS011;12083;52.098;7.582;2022-07-29T04:04:38;4.57;;;1.60;;
23804;SDS011;12083;52.098;7.582;2022-07-29T04:07:03;2.70;;;1.73;;
23804;SDS011;12083;52.098;7.582;2022-07-29T04:09:29;5.90;;;1.63;;
23804;SDS011;12083;52.098;7.582;2022-07-29T04:11:55;1.63;;;1.30;;
23804;SDS011;12083;52.098;7.582;2022-07-29T04:14:21;4.77;;;1.90;;
23804;SDS011;12083;52.098;7.582;2022-07-29T05:02:32;1.43;;;1.10;;
23804;SDS011;12083;52.098;7.582;2022-07-29T05:04:58;3.37;;;1.27;;
23804;SDS011;12083;52.098;7.582;2022-07-29T05:07:23;3.30;;;1.20;;
23804;SDS011;12083;52.098;7.582;2022-07-29T05:09:49;5.07;;;1.80;;
23804;SDS011;12083;52.098;7.582;2022-07-29T05:12:14;8.97;;;2.07;;
23804;SDS011;12083;52.098;7.582;2022-07-29T05:14:40;13.40;;;2.00;;
23804;SDS011;12083;52.098;7.582;2022-07-29T05:17:06;6.23;;;1.50;;
23804;SDS011;12083;52.098;7.582;2022-07-29T05:19:31;10.43;;;1.40;;
23804;SDS011;12083;52.098;7.582;2022-07-29T05:21:57;3.30;;;1.23;;
23804;SDS011;12083;52.098;7.582;2022-07-29T05:24:22;1.07;;;1.00;;
23804;SDS011;12083;52.098;7.582;2022-07-29T05:26:48;3.00;;;1.23;;
23804;SDS011;12083;52.098;7.582;2022-07-29T05:29:14;4.80;;;1.67;;
23804;SDS011;12083;52.098;7.582;2022-07-29T05:31:39;4.47;;;1.77;;
23804;SDS011;12083;52.098;7.582;2022-07-29T05:34:05;9.17;;;2.17;;
23804;SDS011;12083;52.098;7.582;2022-07-29T05:36:30;3.40;;;1.10;;
23804;SDS011;12083;52.098;7.582;2022-07-29T05:38:56;3.63;;;1.47;;
23804;SDS011;12083;52.098;7.582;2022-07-29T05:41:22;6.30;;;1.83;;
23804;SDS011;12083;52.098;7.582;2022-07-29T05:43:48;4.20;;;1.90;;
23804;SDS011;12083;52.098;7.582;2022-07-29T05:46:14;6.63;;;1.70;;
23804;SDS011;12083;52.098;7.582;2022-07-29T05:48:40;5.07;;;1.20;;
23804;SDS011;12083;52.098;7.582;2022-07-29T05:51:06;5.03;;;1.40;;
23804;SDS011;12083;52.098;7.582;2022-07-29T05:53:31;7.83;;;1.80;;
23804;SDS011;12083;52.098;7.582;2022-07-29T05:55:57;1.87;;;1.33;;
23804;SDS011;12083;52.098;7.582;2022-07-29T05:58:23;4.03;;;1.40;;
23804;SDS011;12083;52.098;7.582;2022-07-29T06:00:49;1.90;;;1.20;;
23804;SDS011;12083;52.098;7.582;2022-07-29T06:03:14;6.00;;;1.37;;
23804;SDS011;12083;52.098;7.582;2022-07-29T06:05:40;4.07;;;1.43;;
23804;SDS011;12083;52.098;7.582;2022-07-29T06:08:06;12.27;;;1.43;;
23804;SDS011;12083;52.098;7.582;2022-07-29T06:10:32;3.10;;;1.53;;
23804;SDS011;12083;52.098;7.582;2022-07-29T06:12:59;22.90;;;2.40;;
23804;SDS011;12083;52.098;7.582;2022-07-29T06:15:25;5.80;;;1.67;;
23804;SDS011;12083;52.098;7.582;2022-07-29T06:17:51;7.10;;;2.17;;
23804;SDS011;12083;52.098;7.582;2022-07-29T06:20:17;8.33;;;1.20;;
23804;SDS011;12083;52.098;7.582;2022-07-29T06:22:43;5.80;;;1.43;;
23804;SDS011;12083;52.098;7.582;2022-07-29T06:25:09;4.70;;;2.30;;
23804;SDS011;12083;52.098;7.582;2022-07-29T06:27:35;1.90;;;1.30;;
23804;SDS011;12083;52.098;7.582;2022-07-29T06:30:00;4.33;;;1.50;;
23804;SDS011;12083;52.098;7.582;2022-07-29T06:32:27;3.43;;;1.80;;
23804;SDS011;12083;52.098;7.582;2022-07-29T06:34:52;10.50;;;1.87;;
23804;SDS011;12083;52.098;7.582;2022-07-29T06:37:18;3.07;;;2.10;;
23804;SDS011;12083;52.098;7.582;2022-07-29T06:39:44;9.97;;;1.73;;
23804;SDS011;12083;52.098;7.582;2022-07-29T06:42:09;3.80;;;1.10;;
23804;SDS011;12083;52.098;7.582;2022-07-29T06:44:35;4.63;;;1.70;;
23804;SDS011;12083;52.098;7.582;2022-07-29T06:47:01;4.90;;;1.40;;
23804;SDS011;12083;52.098;7.582;2022-07-29T06:49:26;5.70;;;1.67;;
23804;SDS011;12083;52.098;7.582;2022-07-29T06:51:53;5.70;;;2.17;;
23804;SDS011;12083;52.098;7.582;2022-07-29T06:54:19;4.07;;;1.90;;
23804;SDS011;12083;52.098;7.582;2022-07-29T06:56:45;7.70;;;1.50;;
23804;SDS011;12083;52.098;7.582;2022-07-29T06:59:11;10.90;;;1.63;;
23804;SDS011;12083;52.098;7.582;2022-07-29T07:01:39;5.40;;;1.20;;
23804;SDS011;12083;52.098;7.582;2022-07-29T07:04:06;12.17;;;1.70;;
23804;SDS011;12083;52.098;7.582;2022-07-29T07:06:34;3.13;;;1.10;;
23804;SDS011;12083;52.098;7.582;2022-07-29T07:09:00;2.93;;;1.40;;
23804;SDS011;12083;52.098;7.582;2022-07-29T07:11:26;1.60;;;1.43;;
23804;SDS011;12083;52.098;7.582;2022-07-29T07:13:51;1.47;;;1.37;;
23804;SDS011;12083;52.098;7.582;2022-07-29T07:16:17;4.37;;;1.50;;
23804;SDS011;12083;52.098;7.582;2022-07-29T07:18:42;5.93;;;1.50;;
23804;SDS011;12083;52.098;7.582;2022-07-29T07:21:10;3.60;;;1.63;;
23804;SDS011;12083;52.098;7.582;2022-07-29T07:23:36;9.30;;;1.60;;
23804;SDS011;12083;52.098;7.582;2022-07-29T07:26:01;4.27;;;2.03;;
23804;SDS011;12083;52.098;7.582;2022-07-29T07:28:28;5.60;;;1.23;;
23804;SDS011;12083;52.098;7.582;2022-07-29T07:30:54;7.13;;;2.80;;
23804;SDS011;12083;52.098;7.582;2022-07-29T07:33:20;12.00;;;1.57;;
23804;SDS011;12083;52.098;7.582;2022-07-29T07:35:45;3.83;;;1.60;;
23804;SDS011;12083;52.098;7.582;2022-07-29T07:38:12;7.53;;;1.70;;
23804;SDS011;12083;52.098;7.582;2022-07-29T07:40:38;4.73;;;1.93;;
23804;SDS011;12083;52.098;7.582;2022-07-29T07:43:03;7.63;;;2.23;;
23804;SDS011;12083;52.098;7.582;2022-07-29T07:45:29;4.73;;;1.97;;
23804;SDS011;12083;52.098;7.582;2022-07-29T07:47:57;4.57;;;1.80;;
23804;SDS011;12083;52.098;7.582;2022-07-29T07:50:23;4.33;;;1.40;;
23804;SDS011;12083;52.098;7.582;2022-07-29T07:52:53;10.27;;;1.73;;
23804;SDS011;12083;52.098;7.582;2022-07-29T07:55:22;12.93;;;1.60;;
23804;SDS011;12083;52.098;7.582;2022-07-29T07:57:49;5.00;;;1.87;;
23804;SDS011;12083;52.098;7.582;2022-07-29T08:00:15;11.13;;;1.87;;
23804;SDS011;12083;52.098;7.582;2022-07-29T08:02:41;5.67;;;1.70;;
23804;SDS011;12083;52.098;7.582;2022-07-29T08:05:08;8.40;;;1.50;;
23804;SDS011;12083;52.098;7.582;2022-07-29T08:07:34;7.93;;;2.07;;
23804;SDS011;12083;52.098;7.582;2022-07-29T08:10:00;14.33;;;2.37;;
23804;SDS011;12083;52.098;7.582;2022-07-29T08:12:26;4.50;;;1.97;;
23804;SDS011;12083;52.098;7.582;2022-07-29T08:14:51;2.43;;;1.57;;
23804;SDS011;12083;52.098;7.582;2022-07-29T08:17:17;3.57;;;1.23;;
23804;SDS011;12083;52.098;7.582;2022-07-29T08:19:43;4.50;;;1.50;;
23804;SDS011;12083;52.098;7.582;2022-07-29T08:22:08;3.67;;;1.53;;
23804;SDS011;12083;52.098;7.582;2022-07-29T08:24:35;4.80;;;1.40;;
23804;SDS011;12083;52.098;7.582;2022-07-29T08:27:11;5.00;;;1.70;;
23804;SDS011;12083;52.098;7.582;2022-07-29T08:29:38;4.40;;;1.30;;
23804;SDS011;12083;52.098;7.582;2022-07-29T08:32:04;4.70;;;1.80;;
23804;SDS011;12083;52.098;7.582;2022-07-29T08:34:29;12.33;;;1.87;;
23804;SDS011;12083;52.098;7.582;2022-07-29T08:36:55;5.93;;;1.53;;
23804;SDS011;12083;52.098;7.582;2022-07-29T08:39:22;4.07;;;1.50;;
23804;SDS011;12083;52.098;7.582;2022-07-29T08:41:48;5.67;;;1.50;;
23804;SDS011;12083;52.098;7.582;2022-07-29T08:44:16;5.30;;;1.93;;
23804;SDS011;12083;52.098;7.582;2022-07-29T08:46:44;8.47;;;1.67;;
23804;SDS011;12083;52.098;7.582;2022-07-29T08:49:10;6.70;;;2.00;;
23804;SDS011;12083;52.098;7.582;2022-07-29T08:51:36;10.23;;;1.90;;
23804;SDS011;12083;52.098;7.582;2022-07-29T08:54:04;14.60;;;2.30;;
23804;SDS011;12083;52.098;7.582;2022-07-29T08:56:31;4.80;;;1.20;;
23804;SDS011;12083;52.098;7.582;2022-07-29T08:58:57;1.73;;;1.00;;
23804;SDS011;12083;52.098;7.582;2022-07-29T09:01:25;1.50;;;1.40;;
23804;SDS011;12083;52.098;7.582;2022-07-29T09:03:50;5.17;;;1.50;;
23804;SDS011;12083;52.098;7.582;2022-07-29T09:06:21;2.60;;;1.50;;
23804;SDS011;12083;52.098;7.582;2022-07-29T09:08:47;8.10;;;1.57;;
23804;SDS011;12083;52.098;7.582;2022-07-29T09:11:13;10.77;;;2.27;;
23804;SDS011;12083;52.098;7.582;2022-07-29T09:13:39;2.87;;;1.60;;
23804;SDS011;12083;52.098;7.582;2022-07-29T09:16:05;6.33;;;1.47;;
23804;SDS011;12083;52.098;7.582;2022-07-29T09:18:38;5.07;;;1.63;;
23804;SDS011;12083;52.098;7.582;2022-07-29T09:21:05;3.70;;;1.73;;
23804;SDS011;12083;52.098;7.582;2022-07-29T09:26:30;10.27;;;2.10;;
23804;SDS011;12083;52.098;7.582;2022-07-29T09:28:57;2.23;;;1.40;;
23804;SDS011;12083;52.098;7.582;2022-07-29T09:31:34;20.63;;;2.80;;
23804;SDS011;12083;52.098;7.582;2022-07-29T09:34:01;16.13;;;2.17;;
23804;SDS011;12083;52.098;7.582;2022-07-29T09:36:27;24.83;;;3.37;;
23804;SDS011;12083;52.098;7.582;2022-07-29T09:39:00;7.27;;;2.47;;
23804;SDS011;12083;52.098;7.582;2022-07-29T09:41:26;6.60;;;2.13;;
23804;SDS011;12083;52.098;7.582;2022-07-29T09:43:54;20.10;;;3.03;;
23804;SDS011;12083;52.098;7.582;2022-07-29T09:46:24;5.70;;;2.20;;
23804;SDS011;12083;52.098;7.582;2022-07-29T09:49:24;13.37;;;2.43;;
23804;SDS011;12083;52.098;7.582;2022-07-29T09:51:43;9.43;;;2.40;;
23804;SDS011;12083;52.098;7.582;2022-07-29T09:54:25;13.73;;;3.10;;
23804;SDS011;12083;52.098;7.582;2022-07-29T09:56:53;4.33;;;2.40;;
23804;SDS011;12083;52.098;7.582;2022-07-29T09:59:20;11.30;;;4.27;;
23804;SDS011;12083;52.098;7.582;2022-07-29T10:01:48;3.73;;;1.40;;
23804;SDS011;12083;52.098;7.582;2022-07-29T10:04:15;9.83;;;2.57;;
23804;SDS011;12083;52.098;7.582;2022-07-29T10:07:00;2.90;;;1.87;;
23804;SDS011;12083;52.098;7.582;2022-07-29T10:09:27;4.30;;;2.17;;
23804;SDS011;12083;52.098;7.582;2022-07-29T10:12:06;3.47;;;2.50;;
23804;SDS011;12083;52.098;7.582;2022-07-29T10:14:39;8.37;;;1.93;;
23804;SDS011;12083;52.098;7.582;2022-07-29T10:17:06;5.80;;;2.30;;
23804;SDS011;12083;52.098;7.582;2022-07-29T10:19:33;8.70;;;2.83;;
23804;SDS011;12083;52.098;7.582;2022-07-29T10:22:00;12.10;;;2.83;;
23804;SDS011;12083;52.098;7.582;2022-07-29T10:24:28;9.60;;;2.50;;
23804;SDS011;12083;52.098;7.582;2022-07-29T10:26:56;6.50;;;2.33;;
23804;SDS011;12083;52.098;7.582;2022-07-29T10:29:23;22.83;;;2.73;;
23804;SDS011;12083;52.098;7.582;2022-07-29T10:34:51;5.37;;;2.27;;
23804;SDS011;12083;52.098;7.582;2022-07-29T10:43:52;9.43;;;3.03;;
23804;SDS011;12083;52.098;7.582;2022-07-29T10:46:20;11.83;;;2.10;;
23804;SDS011;12083;52.098;7.582;2022-07-29T10:57:24;4.33;;;2.67;;
23804;SDS011;12083;52.098;7.582;2022-07-29T11:00:36;7.17;;;2.23;;
23804;SDS011;12083;52.098;7.582;2022-07-29T11:05:17;4.50;;;2.50;;
23804;SDS011;12083;52.098;7.582;2022-07-29T11:10:38;7.30;;;2.33;;
23804;SDS011;12083;52.098;7.582;2022-07-29T11:13:04;5.00;;;2.27;;
23804;SDS011;12083;52.098;7.582;2022-07-29T11:15:32;3.00;;;2.67;;
23804;SDS011;12083;52.098;7.582;2022-07-29T11:18:22;9.63;;;2.60;;
23804;SDS011;12083;52.098;7.582;2022-07-29T11:20:49;11.73;;;2.17;;
23804;SDS011;12083;52.098;7.582;2022-07-29T11:23:25;11.63;;;2.90;;
23804;SDS011;12083;52.098;7.582;2022-07-29T11:31:31;10.60;;;2.17;;
23804;SDS011;12083;52.098;7.582;2022-07-29T11:34:23;8.40;;;2.90;;
23804;SDS011;12083;52.098;7.582;2022-07-29T11:39:37;5.93;;;3.50;;
23804;SDS011;12083;52.098;7.582;2022-07-29T11:42:53;9.20;;;3.03;;
23804;SDS011;12083;52.098;7.582;2022-07-29T11:47:37;6.60;;;3.20;;
23804;SDS011;12083;52.098;7.582;2022-07-29T11:50:15;15.03;;;2.77;;
23804;SDS011;12083;52.098;7.582;2022-07-29T11:52:44;7.27;;;2.90;;
23804;SDS011;12083;52.098;7.582;2022-07-29T11:55:18;5.87;;;3.07;;
23804;SDS011;12083;52.098;7.582;2022-07-29T11:57:47;5.00;;;2.33;;
23804;SDS011;12083;52.098;7.582;2022-07-29T12:00:32;13.43;;;3.13;;
23804;SDS011;12083;52.098;7.582;2022-07-29T12:03:01;11.00;;;2.80;;
23804;SDS011;12083;52.098;7.582;2022-07-29T12:05:35;7.40;;;2.80;;
23804;SDS011;12083;52.098;7.582;2022-07-29T12:08:14;11.77;;;3.07;;
23804;SDS011;12083;52.098;7.582;2022-07-29T12:10:44;9.10;;;3.07;;
23804;SDS011;12083;52.098;7.582;2022-07-29T12:13:11;9.13;;;2.97;;
23804;SDS011;12083;52.098;7.582;2022-07-29T12:15:38;6.67;;;2.80;;
23804;SDS011;12083;52.098;7.582;2022-07-29T12:18:10;12.87;;;3.63;;
23804;SDS011;12083;52.098;7.582;2022-07-29T12:20:38;3.83;;;2.70;;
23804;SDS011;12083;52.098;7.582;2022-07-29T12:23:05;8.67;;;3.33;;
23804;SDS011;12083;52.098;7.582;2022-07-29T12:25:33;10.90;;;3.57;;
23804;SDS011;12083;52.098;7.582;2022-07-29T12:28:00;8.70;;;3.00;;
23804;SDS011;12083;52.098;7.582;2022-07-29T12:31:02;7.43;;;2.70;;
23804;SDS011;12083;52.098;7.582;2022-07-29T12:33:22;8.13;;;2.77;;
23804;SDS011;12083;52.098;7.582;2022-07-29T12:35:54;10.73;;;3.30;;
23804;SDS011;12083;52.098;7.582;2022-07-29T12:38:27;7.43;;;2.77;;
23804;SDS011;12083;52.098;7.582;2022-07-29T12:40:54;8.40;;;3.00;;
23804;SDS011;12083;52.098;7.582;2022-07-29T12:43:21;10.80;;;2.93;;
23804;SDS011;12083;52.098;7.582;2022-07-29T12:45:49;12.30;;;2.80;;
23804;SDS011;12083;52.098;7.582;2022-07-29T12:48:16;10.30;;;2.77;;
23804;SDS011;12083;52.098;7.582;2022-07-29T12:50:56;9.50;;;3.23;;
23804;SDS011;12083;52.098;7.582;2022-07-29T12:53:23;8.50;;;2.80;;
23804;SDS011;12083;52.098;7.582;2022-07-29T12:55:50;11.23;;;3.27;;
23804;SDS011;12083;52.098;7.582;2022-07-29T12:58:30;7.27;;;2.80;;
23804;SDS011;12083;52.098;7.582;2022-07-29T13:01:10;12.57;;;3.70;;
23804;SDS011;12083;52.098;7.582;2022-07-29T13:09:09;7.03;;;3.13;;
23804;SDS011;12083;52.098;7.582;2022-07-29T13:11:46;5.07;;;3.90;;
23804;SDS011;12083;52.098;7.582;2022-07-29T13:14:30;5.03;;;2.87;;
23804;SDS011;12083;52.098;7.582;2022-07-29T13:17:09;7.63;;;3.47;;
23804;SDS011;12083;52.098;7.582;2022-07-29T13:22:05;5.93;;;2.87;;
23804;SDS011;12083;52.098;7.582;2022-07-29T13:24:46;7.03;;;3.70;;
23804;SDS011;12083;52.098;7.582;2022-07-29T13:27:16;3.67;;;3.17;;
23804;SDS011;12083;52.098;7.582;2022-07-29T13:29:43;6.80;;;3.50;;
23804;SDS011;12083;52.098;7.582;2022-07-29T13:32:09;15.13;;;3.17;;
23804;SDS011;12083;52.098;7.582;2022-07-29T13:34:36;7.53;;;2.90;;
23804;SDS011;12083;52.098;7.582;2022-07-29T13:37:01;4.67;;;3.07;;
23804;SDS011;12083;52.098;7.582;2022-07-29T13:39:27;9.93;;;3.40;;
23804;SDS011;12083;52.098;7.582;2022-07-29T13:41:53;10.73;;;3.07;;
23804;SDS011;12083;52.098;7.582;2022-07-29T13:44:18;4.20;;;2.30;;
23804;SDS011;12083;52.098;7.582;2022-07-29T13:46:44;4.03;;;3.00;;
23804;SDS011;12083;52.098;7.582;2022-07-29T13:49:09;19.60;;;5.17;;
23804;SDS011;12083;52.098;7.582;2022-07-29T13:51:36;10.00;;;3.40;;
23804;SDS011;12083;52.098;7.582;2022-07-29T13:54:03;13.27;;;3.53;;
23804;SDS011;12083;52.098;7.582;2022-07-29T13:56:28;3.43;;;2.87;;
23804;SDS011;12083;52.098;7.582;2022-07-29T13:58:54;5.83;;;2.80;;
23804;SDS011;12083;52.098;7.582;2022-07-29T14:01:20;8.30;;;3.13;;
23804;SDS011;12083;52.098;7.582;2022-07-29T14:03:46;7.60;;;3.00;;
23804;SDS011;12083;52.098;7.582;2022-07-29T14:06:12;11.43;;;3.50;;
23804;SDS011;12083;52.098;7.582;2022-07-29T14:08:38;6.87;;;3.70;;
23804;SDS011;12083;52.098;7.582;2022-07-29T14:11:05;10.27;;;3.07;;
23804;SDS011;12083;52.098;7.582;2022-07-29T14:13:31;4.53;;;2.83;;
23804;SDS011;12083;52.098;7.582;2022-07-29T14:15:56;8.07;;;3.00;;
23804;SDS011;12083;52.098;7.582;2022-07-29T14:18:22;7.10;;;3.20;;
23804;SDS011;12083;52.098;7.582;2022-07-29T14:20:48;7.80;;;2.87;;
23804;SDS011;12083;52.098;7.582;2022-07-29T14:23:13;6.93;;;2.33;;
23804;SDS011;12083;52.098;7.582;2022-07-29T14:25:39;6.20;;;2.70;;
23804;SDS011;12083;52.098;7.582;2022-07-29T14:28:04;16.43;;;2.40;;
23804;SDS011;12083;52.098;7.582;2022-07-29T14:30:30;7.90;;;2.47;;
23804;SDS011;12083;52.098;7.582;2022-07-29T14:32:56;8.70;;;2.90;;
23804;SDS011;12083;52.098;7.582;2022-07-29T14:35:22;7.67;;;3.17;;
23804;SDS011;12083;52.098;7.582;2022-07-29T14:37:48;13.67;;;2.23;;
23804;SDS011;12083;52.098;7.582;2022-07-29T14:40:14;12.40;;;2.80;;
23804;SDS011;12083;52.098;7.582;2022-07-29T14:42:39;8.80;;;2.47;;
23804;SDS011;12083;52.098;7.582;2022-07-29T14:45:06;16.67;;;3.20;;
23804;SDS011;12083;52.098;7.582;2022-07-29T14:47:32;4.83;;;2.10;;
23804;SDS011;12083;52.098;7.582;2022-07-29T14:49:58;10.13;;;2.87;;
23804;SDS011;12083;52.098;7.582;2022-07-29T14:52:24;13.83;;;2.50;;
23804;SDS011;12083;52.098;7.582;2022-07-29T14:54:49;4.60;;;2.03;;
23804;SDS011;12083;52.098;7.582;2022-07-29T14:57:15;4.77;;;2.23;;
23804;SDS011;12083;52.098;7.582;2022-07-29T14:59:41;24.47;;;2.43;;
23804;SDS011;12083;52.098;7.582;2022-07-29T15:02:07;10.20;;;2.57;;
23804;SDS011;12083;52.098;7.582;2022-07-29T15:04:33;5.03;;;2.03;;
23804;SDS011;12083;52.098;7.582;2022-07-29T15:06:58;5.60;;;1.90;;
23804;SDS011;12083;52.098;7.582;2022-07-29T15:09:24;6.43;;;1.87;;
23804;SDS011;12083;52.098;7.582;2022-07-29T15:11:49;9.30;;;2.30;;
23804;SDS011;12083;52.098;7.582;2022-07-29T15:14:15;8.53;;;2.97;;
23804;SDS011;12083;52.098;7.582;2022-07-29T15:16:40;2.10;;;1.57;;
23804;SDS011;12083;52.098;7.582;2022-07-29T15:19:07;6.87;;;2.10;;
23804;SDS011;12083;52.098;7.582;2022-07-29T15:21:36;8.37;;;3.50;;
23804;SDS011;12083;52.098;7.582;2022-07-29T15:24:02;5.23;;;1.87;;
23804;SDS011;12083;52.098;7.582;2022-07-29T15:26:28;4.70;;;2.03;;
23804;SDS011;12083;52.098;7.582;2022-07-29T15:28:53;10.17;;;1.90;;
23804;SDS011;12083;52.098;7.582;2022-07-29T15:31:20;8.60;;;2.30;;
23804;SDS011;12083;52.098;7.582;2022-07-29T15:33:46;13.53;;;2.23;;
23804;SDS011;12083;52.098;7.582;2022-07-29T15:36:12;5.20;;;2.07;;
23804;SDS011;12083;52.098;7.582;2022-07-29T15:38:38;4.63;;;1.90;;
23804;SDS011;12083;52.098;7.582;2022-07-29T15:41:05;8.27;;;1.90;;
23804;SDS011;12083;52.098;7.582;2022-07-29T15:43:32;2.67;;;1.80;;
23804;SDS011;12083;52.098;7.582;2022-07-29T15:46:00;9.10;;;2.10;;
23804;SDS011;12083;52.098;7.582;2022-07-29T15:48:44;9.33;;;2.13;;
23804;SDS011;12083;52.098;7.582;2022-07-29T15:51:10;6.23;;;2.00;;
23804;SDS011;12083;52.098;7.582;2022-07-29T15:53:35;2.73;;;1.63;;
23804;SDS011;12083;52.098;7.582;2022-07-29T15:56:01;6.40;;;2.00;;
23804;SDS011;12083;52.098;7.582;2022-07-29T15:58:28;3.00;;;1.60;;
23804;SDS011;12083;52.098;7.582;2022-07-29T16:00:54;6.37;;;1.73;;
23804;SDS011;12083;52.098;7.582;2022-07-29T16:03:20;5.40;;;2.00;;
23804;SDS011;12083;52.098;7.582;2022-07-29T16:05:47;6.33;;;2.03;;
23804;SDS011;12083;52.098;7.582;2022-07-29T16:08:13;5.67;;;1.63;;
23804;SDS011;12083;52.098;7.582;2022-07-29T16:10:38;3.20;;;2.00;;
23804;SDS011;12083;52.098;7.582;2022-07-29T16:13:05;11.33;;;2.53;;
23804;SDS011;12083;52.098;7.582;2022-07-29T16:15:30;8.50;;;1.77;;
23804;SDS011;12083;52.098;7.582;2022-07-29T16:17:56;8.63;;;1.77;;
23804;SDS011;12083;52.098;7.582;2022-07-29T16:20:22;5.13;;;2.30;;
23804;SDS011;12083;52.098;7.582;2022-07-29T16:22:48;3.93;;;1.43;;
23804;SDS011;12083;52.098;7.582;2022-07-29T16:25:13;4.57;;;1.87;;
23804;SDS011;12083;52.098;7.582;2022-07-29T16:27:39;6.30;;;1.90;;
23804;SDS011;12083;52.098;7.582;2022-07-29T16:32:59;4.43;;;2.27;;
23804;SDS011;12083;52.098;7.582;2022-07-29T16:35:25;4.57;;;2.70;;